Time;durP1;ratioP1;P1;durP2;ratioP2;P2;SDS_P1;SDS_P2;PMS_P1;PMS_P2;Temp;Humidity;BMP_temperature;BMP_pressure;BME280_temperature;BME280_humidity;BME280_pressure;Samples;Min_cycle;Max_cycle;Signal;HPM_P1;HPM_P2
2021/03/02 00:02:26;;;;;;;60.77;29.17;;;;;;;6.04;100.00;103188.94;1801534;77;938796;-78
2021/03/02 00:04:57;;;;;;;58.87;28.87;;;;;;;6.07;100.00;103186.33;1789642;78;938624;-76
2021/03/02 00:07:28;;;;;;;61.20;30.10;;;;;;;6.07;100.00;103186.33;1801724;78;938552;-78
2021/03/02 00:10:00;;;;;;;65.47;31.27;;;;;;;6.00;100.00;103191.77;1789867;78;938675;-78
2021/03/02 00:12:30;;;;;;;58.70;30.07;;;;;;;6.14;100.00;103190.85;1801513;78;938699;-76
2021/03/02 00:15:00;;;;;;;60.80;29.60;;;;;;;6.15;100.00;103188.95;1789844;78;938814;-76
2021/03/02 00:17:33;;;;;;;59.13;30.83;;;;;;;6.07;100.00;103192.71;1801507;78;938565;-77
2021/03/02 00:20:10;;;;;;;58.37;30.00;;;;;;;6.06;100.00;103197.89;1789841;78;937542;-78
2021/03/02 00:22:47;;;;;;;64.63;29.83;;;;;;;6.06;100.00;103203.41;1801631;78;936539;-79
2021/03/02 00:25:17;;;;;;;62.70;30.70;;;;;;;6.02;100.00;103198.48;1801899;78;938712;-77
2021/03/02 00:27:48;;;;;;;62.97;31.57;;;;;;;6.07;100.00;103195.98;1789824;78;938711;-79
2021/03/02 00:30:20;;;;;;;62.23;31.23;;;;;;;6.08;100.00;103201.81;1801654;78;938783;-77
2021/03/02 00:32:51;;;;;;;60.33;31.37;;;;;;;6.05;100.00;103200.31;1789678;78;938602;-76
2021/03/02 00:35:21;;;;;;;60.17;30.07;;;;;;;6.02;100.00;103200.72;1801684;78;938491;-76
2021/03/02 00:37:51;;;;;;;57.78;30.08;;;;;;;6.03;100.00;103196.92;1789715;78;938653;-76
2021/03/02 00:40:21;;;;;;;56.47;29.30;;;;;;;6.05;100.00;103198.08;1801642;78;938602;-76
2021/03/02 00:42:52;;;;;;;55.75;28.80;;;;;;;6.01;100.00;103196.25;1789790;78;938528;-76
2021/03/02 00:45:22;;;;;;;57.90;30.00;;;;;;;5.92;100.00;103204.33;1801658;78;938596;-75
2021/03/02 00:47:53;;;;;;;54.93;30.40;;;;;;;6.01;100.00;103199.00;1790043;77;938670;-75
2021/03/02 00:50:24;;;;;;;61.43;30.33;;;;;;;6.01;100.00;103194.01;1801565;78;938756;-75
2021/03/02 00:52:54;;;;;;;59.55;30.25;;;;;;;5.95;100.00;103194.27;1789870;78;938617;-75
2021/03/02 00:55:24;;;;;;;62.50;30.17;;;;;;;5.90;100.00;103200.92;1801501;78;938716;-75
2021/03/02 00:57:54;;;;;;;61.28;31.68;;;;;;;5.94;100.00;103206.37;1789909;78;938647;-75
2021/03/02 01:00:26;;;;;;;55.43;28.92;;;;;;;5.96;100.00;103205.64;1801437;78;937466;-76
2021/03/02 01:02:55;;;;;;;54.70;29.70;;;;;;;5.94;100.00;103203.09;1789813;77;937473;-75
2021/03/02 01:05:25;;;;;;;54.93;29.37;;;;;;;5.88;100.00;103203.02;1801569;78;938699;-75
2021/03/02 01:07:55;;;;;;;61.30;30.72;;;;;;;5.97;100.00;103201.84;1789632;78;938607;-75
2021/03/02 01:10:25;;;;;;;58.90;29.93;;;;;;;5.89;100.00;103205.58;1801499;78;938676;-75
2021/03/02 01:12:55;;;;;;;57.30;30.23;;;;;;;5.88;100.00;103199.73;1789775;78;938610;-74
2021/03/02 01:15:25;;;;;;;62.07;31.40;;;;;;;5.84;100.00;103203.05;1792295;78;938673;-75
2021/03/02 01:17:55;;;;;;;57.55;30.37;;;;;;;5.92;100.00;103198.28;1775069;79;938728;-74
2021/03/02 01:20:25;;;;;;;55.37;28.97;;;;;;;5.93;100.00;103193.63;1786967;79;938782;-75
2021/03/02 01:22:55;;;;;;;50.00;27.20;;;;;;;5.89;100.00;103193.70;1774920;79;938731;-75
2021/03/02 01:25:26;;;;;;;51.03;27.73;;;;;;;6.06;100.00;103186.00;1786753;79;938707;-75
2021/03/02 01:27:57;;;;;;;52.10;29.13;;;;;;;5.95;100.00;103186.84;1775383;79;938641;-75
2021/03/02 01:30:28;;;;;;;50.07;27.83;;;;;;;5.90;100.00;103189.34;1787118;79;938661;-75
2021/03/02 01:32:57;;;;;;;50.12;27.35;;;;;;;5.82;100.00;103188.58;1775072;79;938812;-75
2021/03/02 01:35:27;;;;;;;48.50;28.50;;;;;;;5.80;100.00;103187.42;1786920;79;938609;-75
2021/03/02 01:37:57;;;;;;;53.08;28.20;;;;;;;5.80;100.00;103186.56;1775215;79;939582;-76
2021/03/02 01:40:27;;;;;;;54.23;27.60;;;;;;;5.86;100.00;103181.12;1786884;79;937741;-75
2021/03/02 01:42:57;;;;;;;51.83;28.13;;;;;;;5.96;100.00;103173.91;1775234;79;937565;-75
2021/03/02 01:45:27;;;;;;;55.97;30.33;;;;;;;5.78;100.00;103176.23;1786778;79;938671;-75
2021/03/02 01:47:57;;;;;;;51.08;29.12;;;;;;;5.74;100.00;103181.82;1775201;79;938611;-76
2021/03/02 01:50:27;;;;;;;49.53;29.07;;;;;;;5.71;100.00;103179.47;1786788;79;938597;-75
2021/03/02 01:52:57;;;;;;;56.97;29.83;;;;;;;5.64;100.00;103175.27;1775176;79;938582;-75
2021/03/02 01:55:27;;;;;;;48.87;29.93;;;;;;;5.64;100.00;103167.52;1786821;79;938864;-76
2021/03/02 01:57:57;;;;;;;52.93;27.97;;;;;;;5.56;100.00;103164.89;1774982;79;938722;-76
2021/03/02 02:00:30;;;;;;;52.00;29.37;;;;;;;5.53;100.00;103165.27;1774442;79;938745;-75
2021/03/02 02:03:11;;;;;;;50.65;29.60;;;;;;;5.55;100.00;103172.83;1753541;79;938613;-76
2021/03/02 02:05:44;;;;;;;48.80;28.17;;;;;;;5.51;100.00;103164.09;1787042;79;936668;-76
2021/03/02 02:08:17;;;;;;;53.87;29.63;;;;;;;5.47;100.00;103158.13;1787010;79;938595;-75
2021/03/02 02:10:53;;;;;;;52.98;31.10;;;;;;;5.49;100.00;103154.64;1778710;79;938569;-80
2021/03/02 02:13:26;;;;;;;51.00;29.20;;;;;;;5.35;100.00;103136.23;1784024;79;938677;-77
2021/03/02 02:15:59;;;;;;;55.05;30.27;;;;;;;5.38;100.00;103150.16;1775077;79;938810;-76
2021/03/02 02:18:33;;;;;;;50.23;29.13;;;;;;;5.40;100.00;103153.05;1787033;79;938598;-77
2021/03/02 02:21:13;;;;;;;48.77;29.33;;;;;;;5.44;100.00;103153.50;1775452;79;938479;-76
2021/03/02 02:23:49;;;;;;;50.30;29.73;;;;;;;5.31;100.00;103156.96;1787075;79;936673;-76
2021/03/02 02:26:31;;;;;;;55.00;29.60;;;;;;;5.27;100.00;103168.05;1785995;79;938607;-76
2021/03/02 02:29:02;;;;;;;49.55;28.90;;;;;;;5.35;100.00;103162.94;1775249;79;938570;-77
2021/03/02 02:31:34;;;;;;;52.80;28.93;;;;;;;5.21;100.00;103161.95;1787115;79;936474;-77
2021/03/02 02:34:05;;;;;;;52.87;31.03;;;;;;;5.28;100.00;103168.91;1775331;79;938782;-77
2021/03/02 02:36:35;;;;;;;56.70;31.43;;;;;;;5.44;100.00;103151.61;1786793;79;936679;-76
2021/03/02 02:39:07;;;;;;;52.27;30.05;;;;;;;5.56;100.00;103141.46;1775245;79;938546;-77
2021/03/02 02:41:39;;;;;;;55.67;31.80;;;;;;;5.53;100.00;103148.72;1787012;79;936700;-76
2021/03/02 02:44:11;;;;;;;54.50;31.17;;;;;;;5.50;100.00;103150.84;1775087;79;938588;-76
2021/03/02 02:46:43;;;;;;;56.20;31.20;;;;;;;5.55;100.00;103143.36;1786869;79;936782;-77
2021/03/02 02:49:14;;;;;;;53.60;30.80;;;;;;;5.48;100.00;103143.27;1786811;79;937541;-76
2021/03/02 02:51:45;;;;;;;60.43;32.47;;;;;;;5.54;100.00;103134.75;1786975;79;936725;-75
2021/03/02 02:54:15;;;;;;;57.17;31.53;;;;;;;5.53;100.00;103137.69;1786723;79;938784;-74
2021/03/02 02:56:46;;;;;;;58.93;32.23;;;;;;;5.43;100.00;103131.97;1786832;79;936539;-75
2021/03/02 02:59:20;;;;;;;58.73;31.80;;;;;;;5.41;100.00;103132.71;1786789;79;938516;-75
2021/03/02 03:01:53;;;;;;;59.10;31.03;;;;;;;5.37;100.00;103134.67;1732948;79;938662;-75
2021/03/02 03:04:26;;;;;;;58.37;32.87;;;;;;;5.41;100.00;103126.34;1744230;79;938596;-75
2021/03/02 03:07:00;;;;;;;55.70;31.55;;;;;;;5.38;100.00;103125.36;1775178;79;938639;-76
2021/03/02 03:09:31;;;;;;;61.00;33.37;;;;;;;5.33;100.00;103123.71;1786767;79;938539;-76
2021/03/02 03:12:06;;;;;;;58.55;33.13;;;;;;;5.34;100.00;103127.66;1775254;79;938661;-75
2021/03/02 03:14:39;;;;;;;61.53;31.37;;;;;;;5.40;100.00;103118.59;1786777;79;936665;-75
2021/03/02 03:17:12;;;;;;;60.97;33.40;;;;;;;5.47;100.00;103115.92;1774693;79;937816;-76
2021/03/02 03:19:43;;;;;;;58.13;32.33;;;;;;;5.42;100.00;103117.89;1786908;79;936780;-76
2021/03/02 03:22:14;;;;;;;61.70;33.13;;;;;;;5.43;100.00;103114.61;1786849;79;938666;-76
2021/03/02 03:24:44;;;;;;;61.00;32.93;;;;;;;5.33;100.00;103111.31;1786849;79;936779;-76
2021/03/02 03:27:15;;;;;;;56.50;31.90;;;;;;;5.23;100.00;103110.23;1786847;79;937476;-76
2021/03/02 03:29:47;;;;;;;56.50;32.47;;;;;;;5.28;100.00;103111.03;1786667;79;937044;-76
2021/03/02 03:32:18;;;;;;;63.00;33.10;;;;;;;5.28;100.00;103114.65;1786920;79;938546;-76
2021/03/02 03:34:51;;;;;;;63.43;33.83;;;;;;;5.26;100.00;103123.62;1774923;79;938633;-76
2021/03/02 03:37:21;;;;;;;61.90;32.55;;;;;;;5.21;100.00;103130.78;1786554;79;938606;-75
2021/03/02 03:39:51;;;;;;;67.25;35.52;;;;;;;5.28;100.00;103128.43;1774933;79;938656;-75
2021/03/02 03:42:39;;;;;;;63.07;33.30;;;;;;;5.41;100.00;103127.72;1717697;82;936764;-75
2021/03/02 03:45:10;;;;;;;67.03;34.23;;;;;;;5.37;100.00;103120.89;1706812;82;938713;-75
2021/03/02 03:47:40;;;;;;;64.90;32.33;;;;;;;5.51;100.00;103113.10;1718258;82;936897;-77
2021/03/02 03:50:11;;;;;;;65.43;34.13;;;;;;;5.42;100.00;103112.38;1706913;82;938709;-77
2021/03/02 03:52:44;;;;;;;67.07;34.30;;;;;;;5.40;100.00;103110.84;1718160;82;936910;-77
2021/03/02 03:55:17;;;;;;;64.85;35.50;;;;;;;5.23;100.00;103117.65;1717931;82;938746;-76
2021/03/02 03:57:48;;;;;;;64.50;35.78;;;;;;;5.28;100.00;103120.68;1708958;82;937564;-78
2021/03/02 04:00:20;;;;;;;66.37;34.80;;;;;;;5.39;100.00;103109.98;1718391;81;938933;-76
2021/03/02 04:02:52;;;;;;;64.47;33.77;;;;;;;5.52;100.00;103118.09;1706893;81;938812;-75
2021/03/02 04:05:23;;;;;;;66.73;35.87;;;;;;;5.50;100.00;103115.00;1718054;82;938859;-76
2021/03/02 04:07:54;;;;;;;57.90;33.57;;;;;;;5.54;100.00;103109.94;1707063;82;938674;-76
2021/03/02 04:10:25;;;;;;;63.63;33.40;;;;;;;5.45;100.00;103110.59;1718192;82;938729;-75
2021/03/02 04:12:55;;;;;;;66.60;34.35;;;;;;;5.56;100.00;103109.23;1706947;82;938876;-76
2021/03/02 04:15:26;;;;;;;65.57;33.90;;;;;;;5.61;100.00;103109.47;1775249;79;938751;-76
2021/03/02 04:17:57;;;;;;;68.67;34.55;;;;;;;5.54;100.00;103105.80;1775045;79;938680;-76
2021/03/02 04:20:27;;;;;;;73.63;35.80;;;;;;;5.64;100.00;103108.23;1786868;79;938714;-76
2021/03/02 04:22:58;;;;;;;67.20;35.70;;;;;;;5.55;100.00;103102.01;1775288;79;937713;-77
2021/03/02 04:25:28;;;;;;;64.90;35.03;;;;;;;5.55;100.00;103106.14;1786926;79;938783;-76
2021/03/02 04:27:58;;;;;;;67.58;35.63;;;;;;;5.55;100.00;103103.39;1775065;79;940695;-76
2021/03/02 04:30:28;;;;;;;71.57;35.70;;;;;;;5.58;100.00;103098.84;1786798;79;938625;-75
2021/03/02 04:32:58;;;;;;;69.20;35.00;;;;;;;5.53;100.00;103102.71;1775187;79;938540;-75
2021/03/02 04:35:28;;;;;;;69.70;37.53;;;;;;;5.45;100.00;103101.47;1786942;79;938656;-76
2021/03/02 04:37:59;;;;;;;69.75;37.30;;;;;;;5.66;100.00;103111.11;1775156;79;938583;-76
2021/03/02 04:40:29;;;;;;;72.77;36.37;;;;;;;5.59;100.00;103098.33;1786815;79;938705;-76
2021/03/02 04:42:59;;;;;;;70.42;35.55;;;;;;;5.63;100.00;103099.63;1775083;79;938567;-76
2021/03/02 04:45:29;;;;;;;69.93;36.50;;;;;;;5.57;100.00;103093.52;1786758;79;937575;-76
2021/03/02 04:47:59;;;;;;;76.33;37.43;;;;;;;5.61;100.00;103087.94;1775144;79;938855;-76
2021/03/02 04:50:29;;;;;;;74.10;37.13;;;;;;;5.71;100.00;103100.34;1786826;79;938589;-75
2021/03/02 04:52:59;;;;;;;75.32;37.60;;;;;;;5.69;100.00;103091.97;1775140;79;938642;-75
2021/03/02 04:55:29;;;;;;;79.93;38.87;;;;;;;5.62;100.00;103095.16;1786700;79;938701;-76
2021/03/02 04:57:58;;;;;;;72.57;36.77;;;;;;;5.57;100.00;103090.76;1775205;79;937557;-78
2021/03/02 05:00:29;;;;;;;73.07;37.50;;;;;;;5.71;100.00;103089.84;1774848;79;938770;-77
2021/03/02 05:02:59;;;;;;;68.57;36.50;;;;;;;5.76;100.00;103097.00;1775113;78;938661;-78
2021/03/02 05:05:29;;;;;;;76.73;38.47;;;;;;;5.61;100.00;103101.20;1786883;79;938720;-78
2021/03/02 05:07:58;;;;;;;70.47;36.70;;;;;;;5.60;100.00;103108.31;1775266;79;938666;-78
2021/03/02 05:10:28;;;;;;;72.73;36.40;;;;;;;5.62;100.00;103109.81;1786908;79;938560;-78
2021/03/02 05:12:58;;;;;;;74.47;38.27;;;;;;;5.62;100.00;103107.57;1775240;79;938564;-77
2021/03/02 05:15:28;;;;;;;75.20;38.83;;;;;;;5.58;100.00;103117.28;1786955;79;938580;-77
2021/03/02 05:17:58;;;;;;;71.10;38.17;;;;;;;5.64;100.00;103110.48;1775109;79;938738;-75
2021/03/02 05:20:28;;;;;;;72.73;37.70;;;;;;;5.61;100.00;103112.75;1786647;79;938719;-76
2021/03/02 05:22:58;;;;;;;81.42;37.90;;;;;;;5.63;100.00;103114.28;1775180;79;938857;-76
2021/03/02 05:25:27;;;;;;;71.27;37.23;;;;;;;5.65;100.00;103109.40;1786821;79;938690;-76
2021/03/02 05:27:57;;;;;;;71.20;35.68;;;;;;;5.57;100.00;103109.53;1774772;79;938792;-76
2021/03/02 05:30:28;;;;;;;69.90;36.07;;;;;;;5.66;100.00;103106.98;1786845;79;938592;-76
2021/03/02 05:32:57;;;;;;;71.30;35.78;;;;;;;5.75;100.00;103098.05;1775129;79;938642;-77
2021/03/02 05:35:27;;;;;;;75.30;35.87;;;;;;;5.60;100.00;103099.52;1786721;79;938782;-77
2021/03/02 05:37:57;;;;;;;72.40;37.43;;;;;;;5.55;100.00;103099.77;1775055;79;938754;-77
2021/03/02 05:40:27;;;;;;;73.57;36.33;;;;;;;5.57;100.00;103110.06;1786819;79;938616;-77
2021/03/02 05:42:58;;;;;;;78.22;37.30;;;;;;;5.55;100.00;103103.39;1774965;79;938591;-77
2021/03/02 05:45:28;;;;;;;71.53;35.93;;;;;;;5.60;100.00;103111.92;1786819;79;938596;-76
2021/03/02 05:47:58;;;;;;;75.23;37.17;;;;;;;5.53;100.00;103107.37;1775028;79;939354;-76
2021/03/02 05:50:28;;;;;;;79.83;38.33;;;;;;;5.71;100.00;103103.63;1786792;79;938700;-76
2021/03/02 05:52:58;;;;;;;75.92;37.23;;;;;;;5.60;100.00;103107.79;1775142;79;938661;-75
2021/03/02 05:55:29;;;;;;;69.83;36.00;;;;;;;5.63;100.00;103101.88;1786853;79;938683;-76
2021/03/02 05:57:59;;;;;;;69.10;35.83;;;;;;;5.67;100.00;103095.42;1775099;79;938725;-77
2021/03/02 06:00:29;;;;;;;72.60;35.27;;;;;;;5.60;100.00;103098.66;1786881;79;938630;-76
2021/03/02 06:03:00;;;;;;;69.30;34.70;;;;;;;5.50;100.00;103102.59;1775113;78;937529;-76
2021/03/02 06:05:30;;;;;;;71.87;35.10;;;;;;;5.56;100.00;103100.96;1786848;79;938567;-76
2021/03/02 06:08:00;;;;;;;67.82;33.55;;;;;;;5.61;100.00;103105.86;1775163;79;937384;-76
2021/03/02 06:10:31;;;;;;;72.43;35.03;;;;;;;5.59;100.00;103112.11;1786898;79;938655;-75
2021/03/02 06:13:02;;;;;;;70.70;36.93;;;;;;;5.54;100.00;103120.11;1775116;79;937692;-76
2021/03/02 06:15:32;;;;;;;69.20;35.67;;;;;;;5.59;100.00;103114.34;1786820;79;937472;-76
2021/03/02 06:18:15;;;;;;;74.25;36.33;;;;;;;5.62;100.00;103118.59;1775131;79;937410;-75
2021/03/02 06:20:46;;;;;;;68.63;35.53;;;;;;;5.47;100.00;103116.78;1786745;79;936059;-76
2021/03/02 06:23:24;;;;;;;72.40;36.83;;;;;;;5.55;100.00;103111.66;1786821;79;938675;-76
2021/03/02 06:25:56;;;;;;;73.60;35.90;;;;;;;5.59;100.00;103109.35;1774893;79;938984;-76
2021/03/02 06:28:40;;;;;;;73.33;36.63;;;;;;;5.73;100.00;103103.78;1786741;79;937780;-76
2021/03/02 06:31:13;;;;;;;73.50;36.80;;;;;;;5.65;100.00;103101.69;1774891;79;938586;-77
2021/03/02 06:33:43;;;;;;;77.67;37.20;;;;;;;5.62;100.00;103108.95;1780434;79;936523;-76
2021/03/02 06:36:20;;;;;;;76.27;36.27;;;;;;;5.68;100.00;103108.17;1786829;79;938811;-77
2021/03/02 06:38:50;;;;;;;75.70;37.60;;;;;;;5.72;100.00;103106.72;1774830;79;938773;-76
2021/03/02 06:41:23;;;;;;;74.93;35.97;;;;;;;5.79;100.00;103114.00;1786733;79;937430;-76
2021/03/02 06:43:53;;;;;;;70.33;36.57;;;;;;;5.66;100.00;103111.64;1775030;79;938548;-76
2021/03/02 06:46:24;;;;;;;74.57;34.77;;;;;;;5.64;100.00;103117.38;1786724;79;938804;-76
2021/03/02 06:48:56;;;;;;;70.60;35.10;;;;;;;5.66;100.00;103120.77;1771768;79;938794;-78
2021/03/02 06:51:27;;;;;;;74.63;34.43;;;;;;;5.63;100.00;103115.66;1786935;79;938929;-77
2021/03/02 06:54:05;;;;;;;71.57;34.60;;;;;;;5.57;100.00;103119.70;1775177;79;938694;-77
2021/03/02 06:56:37;;;;;;;68.20;34.78;;;;;;;5.55;100.00;103123.20;1786591;79;936744;-77
2021/03/02 06:59:17;;;;;;;70.97;35.13;;;;;;;5.55;100.00;103117.69;1774903;79;938281;-78
2021/03/02 07:01:49;;;;;;;66.70;34.20;;;;;;;5.69;100.00;103124.50;1774974;78;938067;-79
2021/03/02 07:04:20;;;;;;;77.07;34.77;;;;;;;5.63;100.00;103118.94;1786787;79;938701;-76
2021/03/02 07:06:54;;;;;;;68.80;34.57;;;;;;;5.59;100.00;103132.78;1775107;79;938623;-78
2021/03/02 07:09:24;;;;;;;68.77;33.40;;;;;;;5.71;100.00;103122.41;1786826;79;938860;-76
2021/03/02 07:11:57;;;;;;;72.73;34.43;;;;;;;5.70;100.00;103126.73;1774910;79;937869;-75
2021/03/02 07:14:28;;;;;;;73.50;33.13;;;;;;;5.67;100.00;103129.89;1786684;79;938570;-75
2021/03/02 07:16:58;;;;;;;73.67;35.55;;;;;;;5.68;100.00;103131.09;1774993;79;941656;-76
2021/03/02 07:19:29;;;;;;;74.50;34.40;;;;;;;5.74;100.00;103128.05;1786724;79;938942;-75
2021/03/02 07:21:58;;;;;;;77.08;35.80;;;;;;;5.72;100.00;103131.02;1774889;79;948496;-76
2021/03/02 07:24:31;;;;;;;74.23;35.30;;;;;;;5.73;100.00;103134.11;1786515;79;937604;-75
2021/03/02 07:27:04;;;;;;;79.15;33.98;;;;;;;5.82;100.00;103140.31;1774997;79;938670;-76
2021/03/02 07:29:34;;;;;;;83.63;35.17;;;;;;;5.82;100.00;103141.17;1786775;79;936759;-76
2021/03/02 07:32:06;;;;;;;72.22;35.10;;;;;;;5.81;100.00;103145.53;1775220;79;938792;-76
2021/03/02 07:34:37;;;;;;;81.03;36.77;;;;;;;5.77;100.00;103150.59;1786923;79;936762;-75
2021/03/02 07:37:07;;;;;;;79.67;37.07;;;;;;;5.86;100.00;103149.93;1775042;79;938697;-75
2021/03/02 07:39:37;;;;;;;74.60;36.23;;;;;;;5.77;100.00;103152.49;1786992;78;936674;-74
2021/03/02 07:42:24;;;;;;;73.03;36.10;;;;;;;5.90;100.00;103158.17;1775066;79;938081;-76
2021/03/02 07:45:26;;;;;;;71.70;35.05;;;;;;;5.77;100.00;103158.00;1774774;79;938655;-74
2021/03/02 07:47:57;;;;;;;68.42;35.92;;;;;;;5.92;100.00;103161.05;1714690;80;937645;-73
2021/03/02 07:50:28;;;;;;;75.10;37.40;;;;;;;5.92;100.00;103168.47;1786859;78;937428;-78
2021/03/02 07:53:23;;;;;;;76.07;36.23;;;;;;;5.90;100.00;103167.83;1775061;79;937438;-77
2021/03/02 07:56:20;;;;;;;82.93;36.37;;;;;;;5.82;100.00;103161.00;1775031;79;937571;-78
2021/03/02 07:59:19;;;;;;;84.00;35.47;;;;;;;5.79;100.00;103160.03;1775140;79;938060;-77
2021/03/02 08:02:18;;;;;;;76.30;36.13;;;;;;;5.77;100.00;103166.28;1775105;78;937587;-78
2021/03/02 08:04:48;;;;;;;79.17;36.97;;;;;;;5.88;100.00;103169.91;1774545;79;937601;-81
2021/03/02 08:07:27;;;;;;;78.50;37.23;;;;;;;5.81;100.00;103175.87;1786832;79;938598;-81
2021/03/02 08:09:58;;;;;;;81.10;36.40;;;;;;;5.80;100.00;103170.02;1774859;79;940695;-77
2021/03/02 08:12:37;;;;;;;81.33;38.27;;;;;;;5.90;100.00;103174.72;1786740;79;938706;-77
2021/03/02 08:15:40;;;;;;;78.77;36.80;;;;;;;5.83;100.00;103179.27;1774941;79;938924;-77
2021/03/02 08:18:30;;;;;;;82.83;36.73;;;;;;;5.95;100.00;103184.09;1774988;79;938131;-78
2021/03/02 08:21:16;;;;;;;85.00;36.30;;;;;;;5.92;100.00;103185.02;1775024;79;937477;-79
2021/03/02 08:24:06;;;;;;;84.63;36.53;;;;;;;6.04;100.00;103186.19;1786837;79;936696;-76
2021/03/02 08:26:37;;;;;;;84.83;38.93;;;;;;;5.89;100.00;103197.83;1786950;79;936737;-77
2021/03/02 08:29:18;;;;;;;88.87;37.90;;;;;;;5.97;100.00;103195.45;1774927;79;938704;-76
2021/03/02 08:31:49;;;;;;;84.47;38.13;;;;;;;6.02;100.00;103192.97;1774974;79;938725;-78
2021/03/02 08:34:20;;;;;;;85.17;37.13;;;;;;;6.10;100.00;103210.23;1786915;79;938648;-78
2021/03/02 08:36:52;;;;;;;89.17;38.73;;;;;;;6.13;100.00;103201.55;1774948;79;938816;-75
2021/03/02 08:39:22;;;;;;;90.70;37.07;;;;;;;6.02;100.00;103208.14;1786828;79;939145;-76
2021/03/02 08:41:52;;;;;;;90.77;38.27;;;;;;;6.10;100.00;103203.34;1775243;79;938784;-76
2021/03/02 08:44:24;;;;;;;82.55;35.70;;;;;;;6.10;100.00;103206.09;1786606;79;938839;-77
2021/03/02 08:46:56;;;;;;;88.90;39.18;;;;;;;6.15;100.00;103206.37;1774788;79;938601;-76
2021/03/02 08:49:26;;;;;;;89.83;37.00;;;;;;;6.26;100.00;103211.33;1786902;79;937483;-79
2021/03/02 08:52:01;;;;;;;90.13;38.33;;;;;;;6.35;100.00;103208.77;1775270;78;938548;-82
2021/03/02 08:54:30;;;;;;;97.43;39.07;;;;;;;6.26;100.00;103204.95;1786766;79;938624;-79
2021/03/02 08:57:05;;;;;;;85.83;36.98;;;;;;;6.42;100.00;103208.80;1775279;79;938731;-79
2021/03/02 08:59:35;;;;;;;87.23;39.80;;;;;;;6.48;100.00;103206.63;1786836;79;937041;-79
2021/03/02 09:02:05;;;;;;;94.87;39.80;;;;;;;6.48;100.00;103207.16;1775200;78;938894;-78
2021/03/02 09:04:35;;;;;;;83.53;36.90;;;;;;;6.43;100.00;103217.41;1786887;79;936848;-78
2021/03/02 09:07:05;;;;;;;88.07;36.70;;;;;;;6.40;100.00;103209.02;1775098;79;937848;-80
2021/03/02 09:09:37;;;;;;;91.43;39.70;;;;;;;6.31;100.00;103214.36;1786888;79;936788;-78
2021/03/02 09:12:09;;;;;;;98.33;42.47;;;;;;;6.54;100.00;103223.79;1775287;79;938677;-82
2021/03/02 09:14:40;;;;;;;89.30;37.90;;;;;;;6.44;100.00;103215.52;1787160;79;936742;-84
2021/03/02 09:17:11;;;;;;;91.20;39.37;;;;;;;6.55;100.00;103207.52;1775163;79;938651;-80
2021/03/02 09:19:42;;;;;;;91.73;38.93;;;;;;;6.62;100.00;103213.11;1786913;79;936812;-78
2021/03/02 09:22:14;;;;;;;92.47;38.67;;;;;;;6.57;100.00;103203.19;1786903;79;938595;-79
2021/03/02 09:24:46;;;;;;;86.27;37.73;;;;;;;6.68;100.00;103200.72;1786921;79;936728;-80
2021/03/02 09:27:18;;;;;;;89.13;38.53;;;;;;;6.73;100.00;103198.73;1786697;79;938767;-79
2021/03/02 09:29:49;;;;;;;77.60;35.87;;;;;;;6.59;100.00;103192.26;1774991;79;938704;-78
2021/03/02 09:32:24;;;;;;;82.80;37.63;;;;;;;6.65;100.00;103198.37;1786587;79;938630;-79
2021/03/02 09:34:58;;;;;;;85.63;38.33;;;;;;;6.71;100.00;103193.95;1775366;79;938743;-79
2021/03/02 09:37:28;;;;;;;82.37;37.80;;;;;;;6.75;100.00;103193.88;1786923;79;938691;-78
2021/03/02 09:40:01;;;;;;;88.10;39.85;;;;;;;6.84;100.00;103190.75;1775256;79;938672;-77
2021/03/02 09:42:33;;;;;;;85.97;38.47;;;;;;;6.83;100.00;103189.56;1786937;79;938843;-78
2021/03/02 09:45:05;;;;;;;86.43;39.83;;;;;;;6.83;100.00;103189.04;1775137;79;938770;-77
2021/03/02 09:47:36;;;;;;;94.53;40.40;;;;;;;6.92;100.00;103185.59;1786913;79;936723;-77
2021/03/02 09:50:09;;;;;;;87.70;39.13;;;;;;;6.95;100.00;103183.78;1775198;79;937575;-79
2021/03/02 09:52:41;;;;;;;80.85;37.15;;;;;;;6.96;100.00;103188.78;1786637;79;935809;-78
2021/03/02 09:55:31;;;;;;;85.93;38.67;;;;;;;7.01;100.00;103194.03;1787041;79;938582;-78
2021/03/02 09:58:08;;;;;;;74.83;34.90;;;;;;;7.00;100.00;103185.41;1775102;79;938604;-78
2021/03/02 10:00:41;;;;;;;78.13;36.50;;;;;;;6.96;100.00;103188.27;1786937;79;936606;-77
2021/03/02 10:03:14;;;;;;;72.40;34.70;;;;;;;7.03;100.00;103187.75;1774927;78;937878;-76
2021/03/02 10:05:45;;;;;;;76.60;36.87;;;;;;;7.04;100.00;103178.94;1786887;79;936770;-76
2021/03/02 10:08:33;;;;;;;75.27;35.57;;;;;;;7.12;100.00;103179.62;1786769;79;937716;-76
2021/03/02 10:11:07;;;;;;;72.23;33.70;;;;;;;7.29;100.00;103184.27;1774934;79;938502;-75
2021/03/02 10:13:39;;;;;;;76.30;35.30;;;;;;;7.15;100.00;103170.91;1784139;78;936745;-75
2021/03/02 10:16:17;;;;;;;77.40;35.63;;;;;;;7.22;100.00;103171.81;1774986;79;938656;-74
2021/03/02 10:18:50;;;;;;;71.23;35.63;;;;;;;7.20;100.00;103167.52;1778267;79;938815;-76
2021/03/02 10:21:20;;;;;;;71.17;35.97;;;;;;;7.13;100.00;103160.60;1784399;79;938554;-74
2021/03/02 10:23:52;;;;;;;72.53;37.00;;;;;;;7.24;100.00;103157.23;1774810;79;937474;-75
2021/03/02 10:26:31;;;;;;;71.97;35.77;;;;;;;7.41;100.00;103166.53;1786844;79;938810;-75
2021/03/02 10:29:02;;;;;;;74.15;35.78;;;;;;;7.39;100.00;103163.14;1774957;79;938719;-75
2021/03/02 10:31:33;;;;;;;73.20;36.03;;;;;;;7.31;100.00;103161.42;1786950;79;936950;-75
2021/03/02 10:34:05;;;;;;;67.47;34.67;;;;;;;7.25;100.00;103167.77;1775129;79;938660;-75
2021/03/02 10:36:37;;;;;;;67.20;34.30;;;;;;;7.23;100.00;103171.28;1786969;79;936834;-74
2021/03/02 10:39:10;;;;;;;64.27;34.03;;;;;;;7.43;100.00;103169.44;1774938;79;938564;-74
2021/03/02 10:41:41;;;;;;;60.60;32.80;;;;;;;7.61;100.00;103161.94;1786665;79;936944;-75
2021/03/02 10:44:12;;;;;;;64.80;33.27;;;;;;;7.69;100.00;103163.98;1774855;79;937438;-75
2021/03/02 10:46:42;;;;;;;62.20;33.03;;;;;;;7.74;100.00;103159.20;1786965;79;936742;-76
2021/03/02 10:49:12;;;;;;;64.13;33.07;;;;;;;7.76;100.00;103158.44;1786914;79;938569;-76
2021/03/02 10:51:42;;;;;;;70.13;35.60;;;;;;;7.57;100.00;103159.27;1786843;79;936442;-76
2021/03/02 10:54:12;;;;;;;66.20;33.77;;;;;;;7.50;100.00;103147.31;1786759;79;938729;-75
2021/03/02 10:56:43;;;;;;;61.20;35.65;;;;;;;7.59;100.00;103150.22;1786724;79;936601;-75
2021/03/02 10:59:13;;;;;;;60.77;33.57;;;;;;;7.60;100.00;103154.16;1786882;79;938619;-75
2021/03/02 11:01:43;;;;;;;59.00;32.60;;;;;;;7.47;100.00;103148.59;1786791;78;937066;-76
2021/03/02 11:04:13;;;;;;;58.93;31.47;;;;;;;7.51;100.00;103150.41;1786784;79;938687;-76
2021/03/02 11:06:42;;;;;;;60.57;31.80;;;;;;;7.54;100.00;103148.59;1786924;79;936985;-76
2021/03/02 11:09:14;;;;;;;56.17;30.70;;;;;;;7.59;100.00;103146.92;1786818;79;938723;-77
2021/03/02 11:11:44;;;;;;;53.47;30.80;;;;;;;7.59;100.00;103146.06;1786978;79;936775;-77
2021/03/02 11:14:14;;;;;;;56.20;29.73;;;;;;;7.71;100.00;103141.09;1786903;79;938646;-76
2021/03/02 11:16:43;;;;;;;52.27;29.03;;;;;;;7.62;100.00;103137.34;1786960;79;936871;-75
2021/03/02 11:19:14;;;;;;;55.17;30.30;;;;;;;7.75;100.00;103131.83;1786628;79;938822;-76
2021/03/02 11:21:44;;;;;;;52.07;28.47;;;;;;;7.85;100.00;103129.51;1787017;79;936767;-76
2021/03/02 11:24:14;;;;;;;50.90;28.17;;;;;;;7.90;100.00;103133.88;1786771;79;937515;-77
2021/03/02 11:26:44;;;;;;;50.97;29.77;;;;;;;8.03;100.00;103135.27;1786771;79;935764;-77